DLH1JT LBSF-EDDF
Flight info
| Callsign | DLH1JT |
|---|---|
| Flight time | 2h 7m |
| Altitude | 38000 |
| Route | OGOTA N133 LOMOS DCT PADGU DCT MAVIR DCT STEIN DCT SUBEN DCT AKINI T161 DEBHI DEBHI1B |
| Aircraft | A320/M-SDE2E3FGIJ1LORWXYZ/HB1 |
Departure
| Time | 2026-05-06 03:51 |
|---|---|
| Airport | Sofia Airport (LBSF) |
Arrival
| Time | 2026-05-06 05:59 |
|---|---|
| Airport | Frankfurt Main Airport (EDDF) |
| Time | Latitude | Longitude | Altitude | Speed | Heading |
|---|---|---|---|---|---|
| 2026-05-06 03:25 | 42.69074 | 23.41305 | 1747 ft | 0 kts | 72° |
| 2026-05-06 03:42 | 42.69073 | 23.41302 | 1750 ft | 2 kts | 72° |
| 2026-05-06 03:43 | 42.69064 | 23.41269 | 1750 ft | 4 kts | 65° |
| 2026-05-06 03:43 | 42.69051 | 23.41239 | 1740 ft | 4 kts | 39° |
| 2026-05-06 03:43 | 42.69033 | 23.41229 | 1745 ft | 1 kts | 342° |
| 2026-05-06 03:43 | 42.69033 | 23.41230 | 1740 ft | 0 kts | 342° |
| 2026-05-06 03:45 | 42.69033 | 23.41229 | 1745 ft | 1 kts | 342° |
| 2026-05-06 03:45 | 42.69036 | 23.41228 | 1744 ft | 0 kts | 342° |
| 2026-05-06 03:45 | 42.69049 | 23.41223 | 1741 ft | 7 kts | 343° |
| 2026-05-06 03:46 | 42.69115 | 23.41194 | 1742 ft | 10 kts | 342° |
| 2026-05-06 03:46 | 42.69177 | 23.41165 | 1743 ft | 9 kts | 341° |
| 2026-05-06 03:46 | 42.69230 | 23.41150 | 1742 ft | 7 kts | 2° |
| 2026-05-06 03:46 | 42.69273 | 23.41160 | 1750 ft | 6 kts | 11° |
| 2026-05-06 03:47 | 42.69333 | 23.41177 | 1750 ft | 12 kts | 12° |
| 2026-05-06 03:47 | 42.69413 | 23.41201 | 1750 ft | 11 kts | 12° |
| 2026-05-06 03:47 | 42.69479 | 23.41191 | 1744 ft | 9 kts | 322° |
| 2026-05-06 03:47 | 42.69495 | 23.41120 | 1748 ft | 7 kts | 274° |
| 2026-05-06 03:48 | 42.69500 | 23.41032 | 1749 ft | 12 kts | 275° |
| 2026-05-06 03:48 | 42.69508 | 23.40898 | 1741 ft | 17 kts | 274° |
| 2026-05-06 03:48 | 42.69518 | 23.40730 | 1747 ft | 19 kts | 275° |
| 2026-05-06 03:48 | 42.69530 | 23.40546 | 1749 ft | 20 kts | 275° |
| 2026-05-06 03:49 | 42.69542 | 23.40349 | 1748 ft | 22 kts | 275° |
| 2026-05-06 03:49 | 42.69554 | 23.40140 | 1748 ft | 23 kts | 274° |
| 2026-05-06 03:49 | 42.69567 | 23.39918 | 1746 ft | 24 kts | 274° |
| 2026-05-06 03:49 | 42.69580 | 23.39696 | 1739 ft | 16 kts | 275° |
| 2026-05-06 03:50 | 42.69631 | 23.39590 | 1742 ft | 15 kts | 351° |
| 2026-05-06 03:50 | 42.69727 | 23.39600 | 1741 ft | 13 kts | 10° |
| 2026-05-06 03:50 | 42.69770 | 23.39677 | 1748 ft | 12 kts | 91° |
| 2026-05-06 03:50 | 42.69751 | 23.40001 | 1747 ft | 69 kts | 95° |
| 2026-05-06 03:51 | 42.69694 | 23.40960 | 1740 ft | 131 kts | 95° |
| 2026-05-06 03:51 | 42.69599 | 23.42403 | 1816 ft | 170 kts | 96° |
| 2026-05-06 03:51 | 42.69470 | 23.43993 | 2498 ft | 170 kts | 97° |
| 2026-05-06 03:51 | 42.69338 | 23.45598 | 3117 ft | 174 kts | 96° |
| 2026-05-06 03:52 | 42.69229 | 23.47333 | 3432 ft | 195 kts | 95° |
| 2026-05-06 03:52 | 42.69111 | 23.49277 | 3716 ft | 217 kts | 95° |
| 2026-05-06 03:52 | 42.68985 | 23.51397 | 4120 ft | 236 kts | 95° |
| 2026-05-06 03:52 | 42.68850 | 23.53697 | 4669 ft | 251 kts | 94° |
| 2026-05-06 03:53 | 42.69149 | 23.56122 | 5164 ft | 272 kts | 62° |
| 2026-05-06 03:53 | 42.70411 | 23.58042 | 5950 ft | 278 kts | 31° |
| 2026-05-06 03:53 | 42.72224 | 23.58880 | 6805 ft | 279 kts | 1° |
| 2026-05-06 03:53 | 42.74121 | 23.58426 | 7630 ft | 280 kts | 339° |
| 2026-05-06 03:54 | 42.75956 | 23.57495 | 8512 ft | 283 kts | 338° |
| 2026-05-06 03:54 | 42.77802 | 23.56530 | 9383 ft | 286 kts | 338° |
| 2026-05-06 03:54 | 42.79674 | 23.55545 | 9927 ft | 291 kts | 338° |
| 2026-05-06 03:54 | 42.81563 | 23.54557 | 10069 ft | 295 kts | 338° |
| 2026-05-06 03:55 | 42.83573 | 23.53508 | 10088 ft | 320 kts | 338° |
| 2026-05-06 03:55 | 42.85673 | 23.52414 | 10089 ft | 325 kts | 338° |
| 2026-05-06 03:55 | 42.87803 | 23.51279 | 10513 ft | 331 kts | 338° |
| 2026-05-06 03:55 | 42.89942 | 23.50109 | 11388 ft | 332 kts | 337° |
| 2026-05-06 03:56 | 42.92094 | 23.48917 | 12225 ft | 334 kts | 337° |
| 2026-05-06 03:56 | 42.94248 | 23.47721 | 13035 ft | 336 kts | 337° |
| 2026-05-06 03:56 | 42.96427 | 23.46509 | 13789 ft | 340 kts | 337° |
| 2026-05-06 03:56 | 42.98621 | 23.45290 | 14512 ft | 341 kts | 337° |
| 2026-05-06 03:57 | 43.00833 | 23.44063 | 15127 ft | 346 kts | 337° |
| 2026-05-06 03:57 | 43.03077 | 23.42822 | 15743 ft | 350 kts | 337° |
| 2026-05-06 03:57 | 43.05347 | 23.41568 | 16385 ft | 354 kts | 337° |
| 2026-05-06 03:57 | 43.07639 | 23.40303 | 17031 ft | 357 kts | 337° |
| 2026-05-06 03:58 | 43.09956 | 23.39024 | 17667 ft | 360 kts | 337° |
| 2026-05-06 03:58 | 43.12256 | 23.37753 | 18318 ft | 363 kts | 337° |
| 2026-05-06 03:58 | 43.14602 | 23.36455 | 18899 ft | 365 kts | 337° |
| 2026-05-06 03:58 | 43.16958 | 23.35149 | 19483 ft | 366 kts | 337° |
| 2026-05-06 03:59 | 43.19327 | 23.33832 | 20040 ft | 369 kts | 337° |
| 2026-05-06 03:59 | 43.21779 | 23.32765 | 20589 ft | 372 kts | 347° |
| 2026-05-06 03:59 | 43.24352 | 23.32300 | 21133 ft | 375 kts | 354° |
| 2026-05-06 03:59 | 43.26992 | 23.31987 | 21677 ft | 377 kts | 354° |
| 2026-05-06 04:00 | 43.29613 | 23.31675 | 22209 ft | 379 kts | 354° |
| 2026-05-06 04:00 | 43.32249 | 23.31358 | 22724 ft | 382 kts | 354° |
| 2026-05-06 04:00 | 43.34872 | 23.31037 | 23228 ft | 384 kts | 353° |
| 2026-05-06 04:00 | 43.37540 | 23.30706 | 23718 ft | 386 kts | 353° |
| 2026-05-06 04:01 | 43.40224 | 23.30371 | 24134 ft | 388 kts | 353° |
| 2026-05-06 04:01 | 43.42923 | 23.30032 | 24548 ft | 391 kts | 353° |
| 2026-05-06 04:01 | 43.45637 | 23.29690 | 24955 ft | 393 kts | 353° |
| 2026-05-06 04:01 | 43.48366 | 23.29345 | 25353 ft | 395 kts | 353° |
| 2026-05-06 04:02 | 43.51109 | 23.28997 | 25752 ft | 397 kts | 353° |
| 2026-05-06 04:02 | 43.53866 | 23.28650 | 26153 ft | 399 kts | 353° |
| 2026-05-06 04:02 | 43.56637 | 23.28307 | 26557 ft | 401 kts | 353° |
| 2026-05-06 04:02 | 43.59421 | 23.27965 | 26942 ft | 403 kts | 353° |
| 2026-05-06 04:03 | 43.62224 | 23.27622 | 27326 ft | 405 kts | 353° |
| 2026-05-06 04:03 | 43.65030 | 23.27276 | 27705 ft | 407 kts | 353° |
| 2026-05-06 04:03 | 43.67861 | 23.26926 | 28076 ft | 409 kts | 353° |
| 2026-05-06 04:03 | 43.70701 | 23.26573 | 28437 ft | 411 kts | 353° |
| 2026-05-06 04:04 | 43.73560 | 23.26219 | 28738 ft | 415 kts | 353° |
| 2026-05-06 04:04 | 43.76441 | 23.25862 | 29095 ft | 417 kts | 353° |
| 2026-05-06 04:04 | 43.79340 | 23.25498 | 29459 ft | 419 kts | 353° |
| 2026-05-06 04:04 | 43.82227 | 23.24961 | 29810 ft | 419 kts | 346° |
| 2026-05-06 04:05 | 43.85022 | 23.23808 | 30128 ft | 420 kts | 337° |
| 2026-05-06 04:05 | 43.87678 | 23.22119 | 30408 ft | 421 kts | 333° |
| 2026-05-06 04:05 | 43.90325 | 23.20351 | 30702 ft | 422 kts | 333° |
| 2026-05-06 04:05 | 43.92975 | 23.18586 | 30990 ft | 423 kts | 333° |
| 2026-05-06 04:06 | 43.95630 | 23.16816 | 31295 ft | 424 kts | 333° |
| 2026-05-06 04:06 | 43.98290 | 23.15041 | 31621 ft | 424 kts | 333° |
| 2026-05-06 04:06 | 44.00944 | 23.13266 | 32030 ft | 422 kts | 333° |
| 2026-05-06 04:06 | 44.03583 | 23.11504 | 32428 ft | 420 kts | 333° |
| 2026-05-06 04:07 | 44.06205 | 23.09752 | 32864 ft | 417 kts | 333° |
| 2026-05-06 04:07 | 44.08812 | 23.08007 | 33299 ft | 415 kts | 333° |
| 2026-05-06 04:07 | 44.11400 | 23.06267 | 33718 ft | 412 kts | 332° |
| 2026-05-06 04:07 | 44.13974 | 23.04535 | 34135 ft | 410 kts | 332° |
| 2026-05-06 04:08 | 44.15670 | 23.03394 | 34362 ft | 409 kts | 333° |
| 2026-05-06 04:08 | 44.19064 | 23.01112 | 34756 ft | 408 kts | 333° |
| 2026-05-06 04:08 | 44.21621 | 22.99391 | 34984 ft | 409 kts | 333° |
| 2026-05-06 04:08 | 44.23353 | 22.98223 | 35104 ft | 410 kts | 333° |
| 2026-05-06 04:09 | 44.25925 | 22.96484 | 35339 ft | 411 kts | 333° |
| 2026-05-06 04:09 | 44.28497 | 22.94744 | 35589 ft | 411 kts | 333° |
| 2026-05-06 04:09 | 44.31066 | 22.93004 | 35898 ft | 409 kts | 333° |
| 2026-05-06 04:09 | 44.33621 | 22.91272 | 36173 ft | 408 kts | 333° |
| 2026-05-06 04:10 | 44.36172 | 22.89544 | 36426 ft | 407 kts | 333° |
| 2026-05-06 04:10 | 44.38720 | 22.87817 | 36668 ft | 407 kts | 333° |
| 2026-05-06 04:10 | 44.41267 | 22.86089 | 36887 ft | 407 kts | 333° |
| 2026-05-06 04:10 | 44.43813 | 22.84361 | 37103 ft | 407 kts | 333° |
| 2026-05-06 04:11 | 44.46358 | 22.82632 | 37305 ft | 407 kts | 333° |
| 2026-05-06 04:11 | 44.48903 | 22.80900 | 37523 ft | 407 kts | 333° |
| 2026-05-06 04:11 | 44.51446 | 22.79163 | 37725 ft | 407 kts | 333° |
| 2026-05-06 04:11 | 44.53988 | 22.77425 | 37936 ft | 407 kts | 333° |
| 2026-05-06 04:12 | 44.59080 | 22.73944 | 38027 ft | 406 kts | 333° |
| 2026-05-06 04:12 | 44.64159 | 22.70468 | 38027 ft | 406 kts | 333° |
| 2026-05-06 04:13 | 44.69238 | 22.66982 | 38029 ft | 407 kts | 333° |
| 2026-05-06 04:13 | 44.74327 | 22.63489 | 38032 ft | 407 kts | 333° |
| 2026-05-06 04:14 | 44.79002 | 22.59066 | 38036 ft | 406 kts | 315° |
| 2026-05-06 04:14 | 44.82720 | 22.53089 | 38039 ft | 406 kts | 310° |
| 2026-05-06 04:15 | 44.86390 | 22.47049 | 38038 ft | 406 kts | 311° |
| 2026-05-06 04:15 | 44.90049 | 22.41049 | 38043 ft | 406 kts | 311° |
| 2026-05-06 04:16 | 44.93720 | 22.34997 | 38051 ft | 406 kts | 310° |
| 2026-05-06 04:16 | 44.97384 | 22.28928 | 38048 ft | 406 kts | 310° |
| 2026-05-06 04:17 | 45.01056 | 22.22847 | 38049 ft | 406 kts | 310° |
| 2026-05-06 04:17 | 45.04723 | 22.16763 | 38047 ft | 407 kts | 310° |
| 2026-05-06 04:18 | 45.08385 | 22.10668 | 38048 ft | 407 kts | 310° |
| 2026-05-06 04:18 | 45.12040 | 22.04559 | 38052 ft | 407 kts | 310° |
| 2026-05-06 04:19 | 45.15697 | 21.98437 | 38047 ft | 407 kts | 310° |
| 2026-05-06 04:19 | 45.19351 | 21.92301 | 38049 ft | 407 kts | 310° |
| 2026-05-06 04:20 | 45.23002 | 21.86165 | 38046 ft | 407 kts | 310° |
| 2026-05-06 04:20 | 45.26654 | 21.80024 | 38058 ft | 407 kts | 310° |
| 2026-05-06 04:21 | 45.30307 | 21.73877 | 38048 ft | 407 kts | 309° |
| 2026-05-06 04:21 | 45.33956 | 21.67708 | 38047 ft | 408 kts | 309° |
| 2026-05-06 04:22 | 45.37602 | 21.61535 | 38045 ft | 408 kts | 309° |
| 2026-05-06 04:23 | 45.43066 | 21.52255 | 38043 ft | 408 kts | 309° |
| 2026-05-06 04:23 | 45.46706 | 21.46059 | 38045 ft | 408 kts | 309° |
| 2026-05-06 04:24 | 45.50343 | 21.39853 | 38044 ft | 408 kts | 309° |
| 2026-05-06 04:24 | 45.53954 | 21.33672 | 38043 ft | 408 kts | 309° |
| 2026-05-06 04:25 | 45.57580 | 21.27446 | 38050 ft | 408 kts | 309° |
| 2026-05-06 04:25 | 45.61212 | 21.21213 | 38039 ft | 409 kts | 309° |
| 2026-05-06 04:26 | 45.64844 | 21.14955 | 38033 ft | 409 kts | 308° |
| 2026-05-06 04:26 | 45.68471 | 21.08692 | 38034 ft | 409 kts | 308° |
| 2026-05-06 04:27 | 45.72100 | 21.02409 | 38037 ft | 409 kts | 308° |
| 2026-05-06 04:27 | 45.75721 | 20.96124 | 38034 ft | 409 kts | 308° |
| 2026-05-06 04:28 | 45.79346 | 20.89828 | 38033 ft | 409 kts | 308° |
| 2026-05-06 04:28 | 45.82960 | 20.83527 | 38038 ft | 409 kts | 307° |
| 2026-05-06 04:29 | 45.86564 | 20.77226 | 38039 ft | 408 kts | 308° |
| 2026-05-06 04:29 | 45.90168 | 20.70932 | 38038 ft | 408 kts | 308° |
| 2026-05-06 04:30 | 45.93769 | 20.64623 | 38022 ft | 409 kts | 308° |
| 2026-05-06 04:30 | 45.97372 | 20.58288 | 38022 ft | 409 kts | 307° |
| 2026-05-06 04:31 | 46.00963 | 20.51944 | 38030 ft | 409 kts | 307° |
| 2026-05-06 04:31 | 46.04552 | 20.45597 | 38025 ft | 409 kts | 307° |
| 2026-05-06 04:32 | 46.08148 | 20.39261 | 38021 ft | 409 kts | 307° |
| 2026-05-06 04:32 | 46.11731 | 20.32909 | 38021 ft | 408 kts | 307° |
| 2026-05-06 04:33 | 46.15308 | 20.26544 | 38008 ft | 408 kts | 307° |
| 2026-05-06 04:33 | 46.18868 | 20.20200 | 38022 ft | 406 kts | 307° |
| 2026-05-06 04:34 | 46.22407 | 20.13869 | 38026 ft | 405 kts | 307° |
| 2026-05-06 04:34 | 46.25947 | 20.07534 | 38020 ft | 405 kts | 307° |
| 2026-05-06 04:35 | 46.29482 | 20.01194 | 38010 ft | 405 kts | 307° |
| 2026-05-06 04:35 | 46.33015 | 19.94846 | 38004 ft | 405 kts | 307° |
| 2026-05-06 04:36 | 46.36541 | 19.88492 | 37995 ft | 405 kts | 306° |
| 2026-05-06 04:36 | 46.39946 | 19.82008 | 37992 ft | 403 kts | 299° |
| 2026-05-06 04:37 | 46.42468 | 19.74791 | 37991 ft | 402 kts | 295° |
| 2026-05-06 04:37 | 46.44922 | 19.67519 | 37990 ft | 401 kts | 295° |
| 2026-05-06 04:38 | 46.47372 | 19.60244 | 37989 ft | 401 kts | 294° |
| 2026-05-06 04:38 | 46.49821 | 19.52964 | 37979 ft | 401 kts | 294° |
| 2026-05-06 04:39 | 46.52261 | 19.45690 | 37971 ft | 401 kts | 294° |
| 2026-05-06 04:39 | 46.54695 | 19.38410 | 37969 ft | 401 kts | 294° |
| 2026-05-06 04:40 | 46.57123 | 19.31122 | 37973 ft | 401 kts | 294° |
| 2026-05-06 04:40 | 46.59548 | 19.23826 | 37966 ft | 401 kts | 294° |
| 2026-05-06 04:41 | 46.61971 | 19.16517 | 37954 ft | 401 kts | 294° |
| 2026-05-06 04:41 | 46.64392 | 19.09188 | 37948 ft | 402 kts | 294° |
| 2026-05-06 04:42 | 46.66808 | 19.01853 | 37952 ft | 402 kts | 294° |
| 2026-05-06 04:42 | 46.69222 | 18.94503 | 37952 ft | 403 kts | 293° |
| 2026-05-06 04:43 | 46.71636 | 18.87146 | 37956 ft | 403 kts | 293° |
| 2026-05-06 04:43 | 46.74043 | 18.79777 | 37952 ft | 402 kts | 293° |
| 2026-05-06 04:44 | 46.76448 | 18.72409 | 37953 ft | 403 kts | 293° |
| 2026-05-06 04:44 | 46.78852 | 18.65023 | 37948 ft | 403 kts | 293° |
| 2026-05-06 04:45 | 46.81242 | 18.57627 | 37944 ft | 403 kts | 292° |
| 2026-05-06 04:45 | 46.83632 | 18.50216 | 37935 ft | 404 kts | 292° |
| 2026-05-06 04:46 | 46.86022 | 18.42795 | 37935 ft | 404 kts | 292° |
| 2026-05-06 04:46 | 46.88413 | 18.35356 | 37928 ft | 404 kts | 292° |
| 2026-05-06 04:47 | 46.90799 | 18.27917 | 37928 ft | 404 kts | 292° |
| 2026-05-06 04:47 | 46.93181 | 18.20462 | 37925 ft | 405 kts | 292° |
| 2026-05-06 04:48 | 46.95557 | 18.12990 | 37920 ft | 405 kts | 292° |
| 2026-05-06 04:48 | 46.97931 | 18.05498 | 37921 ft | 406 kts | 292° |
| 2026-05-06 04:49 | 47.00306 | 17.98005 | 37919 ft | 406 kts | 292° |
| 2026-05-06 04:49 | 47.02678 | 17.90505 | 37936 ft | 406 kts | 291° |
| 2026-05-06 04:50 | 47.05042 | 17.82984 | 37923 ft | 407 kts | 291° |
| 2026-05-06 04:50 | 47.07006 | 17.76709 | 37919 ft | 407 kts | 291° |
| 2026-05-06 04:51 | 47.09763 | 17.67920 | 37913 ft | 408 kts | 291° |
| 2026-05-06 04:51 | 47.11743 | 17.61570 | 37904 ft | 409 kts | 291° |
| 2026-05-06 04:52 | 47.14110 | 17.53979 | 37925 ft | 409 kts | 291° |
| 2026-05-06 04:52 | 47.16473 | 17.46378 | 37914 ft | 409 kts | 291° |
| 2026-05-06 04:53 | 47.18829 | 17.38757 | 37909 ft | 409 kts | 291° |
| 2026-05-06 04:53 | 47.21169 | 17.31132 | 37903 ft | 409 kts | 291° |
| 2026-05-06 04:54 | 47.23515 | 17.23503 | 37905 ft | 409 kts | 291° |
| 2026-05-06 04:54 | 47.25866 | 17.15862 | 37925 ft | 409 kts | 290° |
| 2026-05-06 04:55 | 47.28200 | 17.08219 | 37917 ft | 409 kts | 290° |
| 2026-05-06 04:55 | 47.30527 | 17.00570 | 37915 ft | 409 kts | 290° |
| 2026-05-06 04:56 | 47.32844 | 16.92916 | 37908 ft | 409 kts | 290° |
| 2026-05-06 04:56 | 47.35147 | 16.85303 | 37903 ft | 409 kts | 290° |
| 2026-05-06 04:57 | 47.37465 | 16.77645 | 37916 ft | 409 kts | 290° |
| 2026-05-06 04:57 | 47.39776 | 16.69965 | 37912 ft | 409 kts | 290° |
| 2026-05-06 04:58 | 47.42075 | 16.62279 | 37906 ft | 409 kts | 290° |
| 2026-05-06 04:58 | 47.44432 | 16.54620 | 37905 ft | 410 kts | 291° |
| 2026-05-06 04:59 | 47.46956 | 16.47042 | 37914 ft | 411 kts | 292° |
| 2026-05-06 04:59 | 47.49493 | 16.39473 | 37907 ft | 411 kts | 292° |
| 2026-05-06 05:00 | 47.51991 | 16.31874 | 37905 ft | 411 kts | 291° |
| 2026-05-06 05:00 | 47.54465 | 16.24250 | 37904 ft | 411 kts | 291° |
| 2026-05-06 05:01 | 47.56932 | 16.16627 | 37906 ft | 411 kts | 291° |
| 2026-05-06 05:01 | 47.59397 | 16.08999 | 37916 ft | 411 kts | 291° |
| 2026-05-06 05:02 | 47.61865 | 16.01347 | 37885 ft | 412 kts | 291° |
| 2026-05-06 05:02 | 47.64320 | 15.93713 | 37876 ft | 413 kts | 291° |
| 2026-05-06 05:03 | 47.66809 | 15.85964 | 37877 ft | 414 kts | 291° |
| 2026-05-06 05:03 | 47.69261 | 15.78291 | 37886 ft | 414 kts | 291° |
| 2026-05-06 05:04 | 47.71725 | 15.70557 | 37902 ft | 415 kts | 290° |
| 2026-05-06 05:04 | 47.74187 | 15.62797 | 37898 ft | 416 kts | 290° |
| 2026-05-06 05:05 | 47.76655 | 15.55011 | 37883 ft | 416 kts | 290° |
| 2026-05-06 05:05 | 47.79124 | 15.47218 | 37884 ft | 417 kts | 290° |
| 2026-05-06 05:06 | 47.81584 | 15.39410 | 37882 ft | 417 kts | 290° |
| 2026-05-06 05:06 | 47.84039 | 15.31584 | 37918 ft | 417 kts | 290° |
| 2026-05-06 05:07 | 47.86485 | 15.23774 | 37906 ft | 416 kts | 290° |
| 2026-05-06 05:07 | 47.88916 | 15.15965 | 37898 ft | 415 kts | 290° |
| 2026-05-06 05:08 | 47.91337 | 15.08154 | 37901 ft | 415 kts | 290° |
| 2026-05-06 05:08 | 47.93759 | 15.00349 | 37887 ft | 415 kts | 290° |
| 2026-05-06 05:09 | 47.96168 | 14.92565 | 37891 ft | 411 kts | 289° |
| 2026-05-06 05:09 | 47.98552 | 14.84825 | 37884 ft | 410 kts | 289° |
| 2026-05-06 05:10 | 48.00928 | 14.77082 | 37877 ft | 410 kts | 289° |
| 2026-05-06 05:10 | 48.03296 | 14.69338 | 37872 ft | 410 kts | 289° |
| 2026-05-06 05:11 | 48.05665 | 14.61583 | 37876 ft | 410 kts | 289° |
| 2026-05-06 05:11 | 48.08022 | 14.53828 | 37892 ft | 410 kts | 288° |
| 2026-05-06 05:12 | 48.10377 | 14.46070 | 37883 ft | 410 kts | 288° |
| 2026-05-06 05:12 | 48.12728 | 14.38297 | 37877 ft | 409 kts | 288° |
| 2026-05-06 05:13 | 48.15068 | 14.30531 | 37874 ft | 409 kts | 288° |
| 2026-05-06 05:13 | 48.17402 | 14.22762 | 37906 ft | 409 kts | 288° |
| 2026-05-06 05:14 | 48.19734 | 14.14969 | 37879 ft | 410 kts | 288° |
| 2026-05-06 05:14 | 48.22063 | 14.07169 | 37882 ft | 410 kts | 288° |
| 2026-05-06 05:15 | 48.24344 | 13.99511 | 37863 ft | 410 kts | 288° |
| 2026-05-06 05:15 | 48.26668 | 13.91684 | 37860 ft | 410 kts | 287° |
| 2026-05-06 05:16 | 48.28968 | 13.83898 | 37873 ft | 410 kts | 287° |
| 2026-05-06 05:16 | 48.31283 | 13.76042 | 37845 ft | 412 kts | 287° |
| 2026-05-06 05:17 | 48.33597 | 13.68166 | 37846 ft | 412 kts | 287° |
| 2026-05-06 05:17 | 48.35912 | 13.60266 | 37843 ft | 413 kts | 287° |
| 2026-05-06 05:18 | 48.38221 | 13.52356 | 37850 ft | 413 kts | 287° |
| 2026-05-06 05:18 | 48.40525 | 13.44426 | 37870 ft | 414 kts | 287° |
| 2026-05-06 05:19 | 48.42826 | 13.36476 | 37850 ft | 415 kts | 287° |
| 2026-05-06 05:19 | 48.45085 | 13.28468 | 37841 ft | 415 kts | 286° |
| 2026-05-06 05:20 | 48.47203 | 13.20382 | 37839 ft | 415 kts | 285° |
| 2026-05-06 05:20 | 48.49298 | 13.12269 | 37843 ft | 416 kts | 285° |
| 2026-05-06 05:21 | 48.51413 | 13.04153 | 37866 ft | 416 kts | 285° |
| 2026-05-06 05:21 | 48.53539 | 12.96031 | 37848 ft | 417 kts | 285° |
| 2026-05-06 05:22 | 48.55664 | 12.87894 | 37849 ft | 417 kts | 285° |
| 2026-05-06 05:22 | 48.57771 | 12.79789 | 37851 ft | 417 kts | 285° |
| 2026-05-06 05:23 | 48.59883 | 12.71624 | 37848 ft | 417 kts | 285° |
| 2026-05-06 05:23 | 48.63043 | 12.59357 | 37855 ft | 418 kts | 285° |
| 2026-05-06 05:24 | 48.65143 | 12.51160 | 37853 ft | 418 kts | 285° |
| 2026-05-06 05:24 | 48.67235 | 12.42954 | 37847 ft | 418 kts | 285° |
| 2026-05-06 05:25 | 48.69327 | 12.34741 | 37848 ft | 418 kts | 285° |
| 2026-05-06 05:25 | 48.71414 | 12.26527 | 37877 ft | 418 kts | 285° |
| 2026-05-06 05:26 | 48.73493 | 12.18291 | 37868 ft | 418 kts | 285° |
| 2026-05-06 05:26 | 48.75955 | 12.10258 | 37857 ft | 424 kts | 294° |
| 2026-05-06 05:27 | 48.78890 | 12.02496 | 37846 ft | 425 kts | 294° |
| 2026-05-06 05:27 | 48.81833 | 11.94727 | 37842 ft | 425 kts | 294° |
| 2026-05-06 05:28 | 48.84766 | 11.86934 | 37866 ft | 425 kts | 294° |
| 2026-05-06 05:28 | 48.87684 | 11.79129 | 37854 ft | 425 kts | 294° |
| 2026-05-06 05:29 | 48.90604 | 11.71322 | 37851 ft | 425 kts | 294° |
| 2026-05-06 05:29 | 48.93520 | 11.63495 | 37845 ft | 425 kts | 294° |
| 2026-05-06 05:30 | 48.96426 | 11.55669 | 37839 ft | 425 kts | 294° |
| 2026-05-06 05:30 | 48.99331 | 11.47827 | 37857 ft | 426 kts | 294° |
| 2026-05-06 05:31 | 49.02238 | 11.39968 | 37844 ft | 426 kts | 294° |
| 2026-05-06 05:31 | 49.05146 | 11.32077 | 37560 ft | 428 kts | 294° |
| 2026-05-06 05:32 | 49.06599 | 11.28127 | 37034 ft | 426 kts | 294° |
| 2026-05-06 05:32 | 49.08025 | 11.24240 | 36509 ft | 425 kts | 294° |
| 2026-05-06 05:32 | 49.09466 | 11.20304 | 36006 ft | 425 kts | 294° |
| 2026-05-06 05:32 | 49.10905 | 11.16381 | 35508 ft | 422 kts | 293° |
| 2026-05-06 05:33 | 49.12334 | 11.12485 | 35014 ft | 419 kts | 293° |
| 2026-05-06 05:33 | 49.13749 | 11.08618 | 34556 ft | 416 kts | 293° |
| 2026-05-06 05:33 | 49.15151 | 11.04778 | 34080 ft | 412 kts | 292° |
| 2026-05-06 05:33 | 49.16543 | 11.00956 | 33586 ft | 409 kts | 292° |
| 2026-05-06 05:34 | 49.17916 | 10.97179 | 33034 ft | 406 kts | 292° |
| 2026-05-06 05:34 | 49.19282 | 10.93413 | 32498 ft | 403 kts | 292° |
| 2026-05-06 05:34 | 49.20632 | 10.89683 | 31963 ft | 399 kts | 292° |
| 2026-05-06 05:34 | 49.21969 | 10.85980 | 31442 ft | 396 kts | 292° |
| 2026-05-06 05:35 | 49.23295 | 10.82306 | 30932 ft | 393 kts | 292° |
| 2026-05-06 05:35 | 49.24608 | 10.78662 | 30440 ft | 390 kts | 292° |
| 2026-05-06 05:35 | 49.25911 | 10.75047 | 29947 ft | 386 kts | 292° |
| 2026-05-06 05:35 | 49.26786 | 10.72616 | 29562 ft | 384 kts | 292° |
| 2026-05-06 05:36 | 49.28067 | 10.69052 | 29021 ft | 380 kts | 291° |
| 2026-05-06 05:36 | 49.29335 | 10.65515 | 28476 ft | 377 kts | 292° |
| 2026-05-06 05:36 | 49.30593 | 10.62003 | 27923 ft | 374 kts | 292° |
| 2026-05-06 05:36 | 49.31838 | 10.58522 | 27382 ft | 372 kts | 292° |
| 2026-05-06 05:37 | 49.33059 | 10.55101 | 26854 ft | 369 kts | 292° |
| 2026-05-06 05:37 | 49.34285 | 10.51663 | 26334 ft | 366 kts | 292° |
| 2026-05-06 05:37 | 49.35504 | 10.48246 | 25820 ft | 364 kts | 293° |
| 2026-05-06 05:37 | 49.36841 | 10.44949 | 25304 ft | 365 kts | 299° |
| 2026-05-06 05:38 | 49.38297 | 10.41775 | 24812 ft | 363 kts | 300° |
| 2026-05-06 05:38 | 49.39745 | 10.38618 | 24328 ft | 361 kts | 300° |
| 2026-05-06 05:38 | 49.41183 | 10.35473 | 23843 ft | 359 kts | 300° |
| 2026-05-06 05:38 | 49.42611 | 10.32339 | 23385 ft | 357 kts | 300° |
| 2026-05-06 05:39 | 49.44030 | 10.29216 | 22830 ft | 356 kts | 300° |
| 2026-05-06 05:39 | 49.45444 | 10.26102 | 22284 ft | 355 kts | 300° |
| 2026-05-06 05:39 | 49.46853 | 10.23000 | 21743 ft | 354 kts | 300° |
| 2026-05-06 05:39 | 49.48259 | 10.19904 | 21215 ft | 353 kts | 300° |
| 2026-05-06 05:40 | 49.49660 | 10.16813 | 20698 ft | 352 kts | 300° |
| 2026-05-06 05:40 | 49.51058 | 10.13721 | 20184 ft | 351 kts | 300° |
| 2026-05-06 05:40 | 49.52453 | 10.10638 | 19697 ft | 351 kts | 300° |
| 2026-05-06 05:40 | 49.53846 | 10.07561 | 19204 ft | 350 kts | 300° |
| 2026-05-06 05:41 | 49.55236 | 10.04486 | 18722 ft | 350 kts | 300° |
| 2026-05-06 05:41 | 49.56622 | 10.01411 | 18242 ft | 349 kts | 300° |
| 2026-05-06 05:41 | 49.58005 | 9.98336 | 17719 ft | 349 kts | 300° |
| 2026-05-06 05:41 | 49.59386 | 9.95262 | 17187 ft | 349 kts | 300° |
| 2026-05-06 05:42 | 49.60765 | 9.92188 | 16666 ft | 348 kts | 301° |
| 2026-05-06 05:42 | 49.62143 | 9.89118 | 16150 ft | 348 kts | 301° |
| 2026-05-06 05:42 | 49.63519 | 9.86049 | 15638 ft | 348 kts | 301° |
| 2026-05-06 05:42 | 49.64892 | 9.82980 | 15136 ft | 347 kts | 301° |
| 2026-05-06 05:43 | 49.66261 | 9.79915 | 14634 ft | 346 kts | 301° |
| 2026-05-06 05:43 | 49.67626 | 9.76857 | 14161 ft | 345 kts | 301° |
| 2026-05-06 05:43 | 49.68986 | 9.73807 | 13671 ft | 344 kts | 301° |
| 2026-05-06 05:43 | 49.70342 | 9.70756 | 13145 ft | 343 kts | 301° |
| 2026-05-06 05:44 | 49.71689 | 9.67723 | 12615 ft | 342 kts | 301° |
| 2026-05-06 05:44 | 49.73031 | 9.64705 | 12089 ft | 340 kts | 301° |
| 2026-05-06 05:44 | 49.74365 | 9.61703 | 11587 ft | 338 kts | 301° |
| 2026-05-06 05:44 | 49.75691 | 9.58714 | 11073 ft | 336 kts | 301° |
| 2026-05-06 05:45 | 49.77010 | 9.55734 | 10578 ft | 334 kts | 301° |
| 2026-05-06 05:45 | 49.78314 | 9.52783 | 10095 ft | 332 kts | 301° |
| 2026-05-06 05:45 | 49.79605 | 9.49861 | 9815 ft | 323 kts | 301° |
| 2026-05-06 05:45 | 49.80845 | 9.47057 | 9782 ft | 307 kts | 301° |
| 2026-05-06 05:46 | 49.82024 | 9.44398 | 9781 ft | 291 kts | 302° |
| 2026-05-06 05:46 | 49.83375 | 9.42080 | 9648 ft | 291 kts | 313° |
| 2026-05-06 05:46 | 49.84875 | 9.39997 | 9334 ft | 288 kts | 314° |
| 2026-05-06 05:46 | 49.86313 | 9.37871 | 9012 ft | 284 kts | 310° |
| 2026-05-06 05:47 | 49.87660 | 9.35656 | 8700 ft | 281 kts | 309° |
| 2026-05-06 05:47 | 49.88984 | 9.33442 | 8387 ft | 279 kts | 309° |
| 2026-05-06 05:47 | 49.90298 | 9.31244 | 8081 ft | 277 kts | 309° |
| 2026-05-06 05:47 | 49.91604 | 9.29054 | 7780 ft | 275 kts | 309° |
| 2026-05-06 05:48 | 49.92897 | 9.26879 | 7463 ft | 274 kts | 309° |
| 2026-05-06 05:48 | 49.94166 | 9.24746 | 7168 ft | 272 kts | 309° |
| 2026-05-06 05:49 | 49.95095 | 9.23289 | 6971 ft | 274 kts | 315° |
| 2026-05-06 05:49 | 49.96449 | 9.21246 | 6671 ft | 269 kts | 310° |
| 2026-05-06 05:50 | 49.97723 | 9.19120 | 6372 ft | 267 kts | 309° |
| 2026-05-06 05:50 | 49.98977 | 9.17005 | 6076 ft | 265 kts | 309° |
| 2026-05-06 05:50 | 50.00222 | 9.14905 | 5755 ft | 264 kts | 309° |
| 2026-05-06 05:50 | 50.01458 | 9.12806 | 5461 ft | 263 kts | 309° |
| 2026-05-06 05:51 | 50.02691 | 9.10715 | 5153 ft | 262 kts | 309° |
| 2026-05-06 05:51 | 50.03916 | 9.08629 | 4851 ft | 260 kts | 309° |
| 2026-05-06 05:51 | 50.05131 | 9.06561 | 4550 ft | 258 kts | 309° |
| 2026-05-06 05:51 | 50.06325 | 9.04521 | 4236 ft | 252 kts | 309° |
| 2026-05-06 05:52 | 50.07480 | 9.02557 | 3933 ft | 246 kts | 309° |
| 2026-05-06 05:52 | 50.08614 | 9.00662 | 3717 ft | 230 kts | 309° |
| 2026-05-06 05:52 | 50.09698 | 8.98875 | 3699 ft | 226 kts | 309° |
| 2026-05-06 05:52 | 50.10776 | 8.97099 | 3698 ft | 225 kts | 309° |
| 2026-05-06 05:53 | 50.11703 | 8.95174 | 3702 ft | 220 kts | 292° |
| 2026-05-06 05:53 | 50.12136 | 8.92926 | 3705 ft | 216 kts | 274° |
| 2026-05-06 05:53 | 50.12048 | 8.90696 | 3699 ft | 200 kts | 255° |
| 2026-05-06 05:53 | 50.11601 | 8.88683 | 3697 ft | 195 kts | 249° |
| 2026-05-06 05:54 | 50.11135 | 8.86696 | 3693 ft | 194 kts | 250° |
| 2026-05-06 05:54 | 50.10671 | 8.84721 | 3696 ft | 194 kts | 249° |
| 2026-05-06 05:54 | 50.10204 | 8.82739 | 3572 ft | 196 kts | 250° |
| 2026-05-06 05:54 | 50.09738 | 8.80760 | 3352 ft | 193 kts | 249° |
| 2026-05-06 05:55 | 50.09286 | 8.78841 | 3116 ft | 184 kts | 249° |
| 2026-05-06 05:55 | 50.08862 | 8.77047 | 2873 ft | 167 kts | 250° |
| 2026-05-06 05:55 | 50.08494 | 8.75487 | 2658 ft | 144 kts | 249° |
| 2026-05-06 05:55 | 50.08163 | 8.74089 | 2464 ft | 136 kts | 249° |
| 2026-05-06 05:56 | 50.07843 | 8.72735 | 2292 ft | 132 kts | 249° |
| 2026-05-06 05:56 | 50.07527 | 8.71401 | 2115 ft | 131 kts | 249° |
| 2026-05-06 05:56 | 50.07214 | 8.70079 | 1931 ft | 130 kts | 248° |
| 2026-05-06 05:56 | 50.06903 | 8.68766 | 1758 ft | 129 kts | 248° |
| 2026-05-06 05:57 | 50.06591 | 8.67451 | 1588 ft | 129 kts | 248° |
| 2026-05-06 05:57 | 50.06280 | 8.66143 | 1416 ft | 128 kts | 247° |
| 2026-05-06 05:57 | 50.05969 | 8.64829 | 1235 ft | 130 kts | 248° |
| 2026-05-06 05:57 | 50.05655 | 8.63509 | 1058 ft | 130 kts | 248° |
| 2026-05-06 05:58 | 50.05341 | 8.62189 | 886 ft | 131 kts | 246° |
| 2026-05-06 05:58 | 50.05022 | 8.60851 | 692 ft | 133 kts | 248° |
| 2026-05-06 05:58 | 50.04711 | 8.59507 | 544 ft | 131 kts | 246° |
| 2026-05-06 05:58 | 50.04392 | 8.58183 | 391 ft | 130 kts | 246° |
| 2026-05-06 05:59 | 50.04104 | 8.56985 | 364 ft | 97 kts | 250° |
| 2026-05-06 05:59 | 50.03952 | 8.56340 | 360 ft | 47 kts | 249° |
| 2026-05-06 05:59 | 50.03884 | 8.55984 | 351 ft | 28 kts | 263° |
| 2026-05-06 05:59 | 50.03899 | 8.55714 | 351 ft | 18 kts | 279° |
| 2026-05-06 06:00 | 50.03980 | 8.55673 | 359 ft | 13 kts | 52° |
| 2026-05-06 06:00 | 50.04011 | 8.55797 | 359 ft | 11 kts | 69° |
| 2026-05-06 06:00 | 50.04037 | 8.55902 | 352 ft | 10 kts | 69° |
| 2026-05-06 06:00 | 50.04058 | 8.55989 | 354 ft | 8 kts | 69° |
| 2026-05-06 06:01 | 50.04081 | 8.56083 | 358 ft | 12 kts | 69° |
| 2026-05-06 06:01 | 50.04114 | 8.56223 | 357 ft | 17 kts | 70° |
| 2026-05-06 06:01 | 50.04160 | 8.56423 | 359 ft | 22 kts | 69° |
| 2026-05-06 06:01 | 50.04219 | 8.56662 | 364 ft | 25 kts | 70° |
| 2026-05-06 06:02 | 50.04276 | 8.56915 | 362 ft | 25 kts | 70° |
| 2026-05-06 06:02 | 50.04342 | 8.57179 | 365 ft | 27 kts | 69° |
| 2026-05-06 06:02 | 50.04409 | 8.57459 | 361 ft | 29 kts | 70° |
| 2026-05-06 06:02 | 50.04479 | 8.57752 | 365 ft | 28 kts | 69° |
| 2026-05-06 06:03 | 50.04531 | 8.57972 | 367 ft | 14 kts | 70° |
| 2026-05-06 06:03 | 50.04612 | 8.58014 | 364 ft | 16 kts | 336° |
| 2026-05-06 06:03 | 50.04694 | 8.57960 | 360 ft | 10 kts | 337° |
| 2026-05-06 06:03 | 50.04757 | 8.57924 | 359 ft | 9 kts | 340° |
| 2026-05-06 06:04 | 50.04767 | 8.57853 | 360 ft | 8 kts | 247° |
| 2026-05-06 06:04 | 50.04763 | 8.57761 | 356 ft | 7 kts | 271° |
| 2026-05-06 06:04 | 50.04763 | 8.57731 | 356 ft | 1 kts | 271° |
| 2026-05-06 06:04 | 50.04763 | 8.57729 | 356 ft | 0 kts | 270° |